Time;durP1;ratioP1;P1;durP2;ratioP2;P2;SDS_P1;SDS_P2;PMS_P1;PMS_P2;Temp;Humidity;BMP_temperature;BMP_pressure;BME280_temperature;BME280_humidity;BME280_pressure;Samples;Min_cycle;Max_cycle;Signal;HPM_P1;HPM_P2
2021/11/27 00:00:41;;;;;;;21.80;17.50;;;3.10;99.90;;;;;;4976196;28;20420;-81
2021/11/27 00:03:07;;;;;;;22.63;18.17;;;3.20;99.90;;;;;;5007095;28;20471;-83
2021/11/27 00:05:37;;;;;;;21.60;17.75;;;3.10;99.90;;;;;;4989973;28;20405;-81
2021/11/27 00:08:06;;;;;;;24.27;18.48;;;3.10;99.90;;;;;;4992143;28;20420;-81
2021/11/27 00:10:33;;;;;;;23.75;17.83;;;3.20;99.90;;;;;;4989485;28;20429;-81
2021/11/27 00:13:00;;;;;;;22.33;17.90;;;3.20;99.90;;;;;;4984890;28;20441;-82
2021/11/27 00:15:28;;;;;;;22.70;17.87;;;3.20;99.90;;;;;;4971088;28;20527;-81
2021/11/27 00:17:55;;;;;;;23.90;17.95;;;3.20;99.90;;;;;;4972151;28;20386;-81
2021/11/27 00:20:24;;;;;;;26.10;18.33;;;3.20;99.90;;;;;;4971591;28;20380;-82
2021/11/27 00:22:51;;;;;;;24.70;18.17;;;3.20;99.90;;;;;;4972158;28;20386;-81
2021/11/27 00:25:17;;;;;;;23.52;17.83;;;3.20;99.90;;;;;;4972084;28;20378;-82
2021/11/27 00:27:43;;;;;;;25.15;18.80;;;3.30;99.90;;;;;;4971849;28;20738;-81
2021/11/27 00:30:13;;;;;;;23.20;18.35;;;3.30;99.90;;;;;;4970618;28;20383;-81
2021/11/27 00:32:39;;;;;;;23.60;17.95;;;3.30;99.90;;;;;;4971590;28;20374;-81
2021/11/27 00:35:06;;;;;;;24.63;17.48;;;3.30;99.90;;;;;;4970878;28;20865;-81
2021/11/27 00:37:32;;;;;;;23.35;18.63;;;3.20;99.90;;;;;;4970722;28;20383;-81
2021/11/27 00:39:58;;;;;;;25.23;19.05;;;3.20;99.90;;;;;;4970220;28;20824;-83
2021/11/27 00:42:24;;;;;;;25.07;18.87;;;3.20;99.90;;;;;;4971703;28;20868;-81
2021/11/27 00:44:50;;;;;;;22.20;17.93;;;3.20;99.90;;;;;;4983828;28;20451;-81
2021/11/27 00:47:16;;;;;;;25.57;18.73;;;3.20;99.90;;;;;;4984764;28;20479;-81
2021/11/27 00:49:41;;;;;;;24.97;18.33;;;3.20;99.90;;;;;;4997279;28;20763;-81
2021/11/27 00:52:07;;;;;;;23.33;18.80;;;3.20;99.90;;;;;;4999277;28;20802;-82
2021/11/27 00:54:34;;;;;;;23.63;18.23;;;3.20;99.90;;;;;;5010365;28;20422;-81
2021/11/27 00:57:00;;;;;;;22.17;18.40;;;3.30;99.90;;;;;;5009255;28;20386;-81
2021/11/27 00:59:25;;;;;;;21.53;18.27;;;3.30;99.90;;;;;;5002995;28;20385;-81
2021/11/27 01:01:52;;;;;;;22.77;18.37;;;3.30;99.90;;;;;;5001446;28;20863;-80
2021/11/27 01:04:18;;;;;;;23.90;18.52;;;3.20;99.90;;;;;;5004957;28;20449;-79
2021/11/27 01:06:43;;;;;;;26.88;18.67;;;3.10;99.90;;;;;;5007500;28;20888;-80
2021/11/27 01:09:14;;;;;;;22.05;17.50;;;3.10;99.90;;;;;;5007217;28;20379;-81
2021/11/27 01:11:50;;;;;;;23.52;17.90;;;3.10;99.90;;;;;;4990562;28;20415;-81
2021/11/27 01:14:21;;;;;;;25.20;18.57;;;3.10;99.90;;;;;;5009294;28;20402;-80
2021/11/27 01:16:51;;;;;;;22.98;18.30;;;3.00;99.90;;;;;;5001992;28;20865;-81
2021/11/27 01:19:19;;;;;;;25.70;19.02;;;2.90;99.90;;;;;;5002714;28;20743;-81
2021/11/27 01:21:48;;;;;;;23.60;18.90;;;2.90;99.90;;;;;;4999117;28;20412;-79
2021/11/27 01:24:16;;;;;;;24.60;19.23;;;2.80;99.90;;;;;;5002012;28;20398;-81
2021/11/27 01:26:42;;;;;;;25.20;19.17;;;2.80;99.90;;;;;;4999130;28;20769;-80
2021/11/27 01:29:08;;;;;;;30.08;20.42;;;2.70;99.90;;;;;;4999286;28;20437;-81
2021/11/27 01:31:36;;;;;;;25.30;19.17;;;2.60;99.90;;;;;;4972654;28;20396;-80
2021/11/27 01:34:03;;;;;;;27.35;20.67;;;2.40;99.90;;;;;;4993683;28;20531;-80
2021/11/27 01:36:29;;;;;;;25.30;20.33;;;2.40;99.90;;;;;;5000637;28;20530;-81
2021/11/27 01:38:54;;;;;;;27.17;21.13;;;2.20;99.90;;;;;;4993230;28;20534;-81
2021/11/27 01:41:20;;;;;;;23.80;19.23;;;2.20;99.90;;;;;;4997075;28;20891;-81
2021/11/27 01:43:46;;;;;;;25.73;20.27;;;2.10;99.90;;;;;;4989688;28;20746;-80
2021/11/27 01:46:12;;;;;;;25.63;20.67;;;2.10;99.90;;;;;;4998426;28;20905;-81
2021/11/27 01:48:38;;;;;;;27.25;20.60;;;2.00;99.90;;;;;;4994354;28;20943;-81
2021/11/27 01:51:12;;;;;;;26.95;21.05;;;2.00;99.90;;;;;;4989433;28;20369;-82
2021/11/27 01:53:43;;;;;;;24.17;19.38;;;1.90;99.90;;;;;;4990592;28;20387;-81
2021/11/27 01:56:15;;;;;;;27.48;20.30;;;1.90;99.90;;;;;;4991575;28;20945;-81
2021/11/27 01:58:41;;;;;;;26.17;20.13;;;1.90;99.90;;;;;;5005153;28;20403;-81
2021/11/27 02:01:11;;;;;;;26.00;20.23;;;1.90;99.90;;;;;;4999453;28;20394;-81
2021/11/27 02:03:37;;;;;;;25.52;20.25;;;1.80;99.90;;;;;;5000095;28;20443;-82
2021/11/27 02:06:07;;;;;;;25.95;20.60;;;1.80;99.90;;;;;;4972016;28;20887;-80
2021/11/27 02:08:34;;;;;;;26.90;19.98;;;1.80;99.90;;;;;;4972412;28;20389;-80
2021/11/27 02:11:00;;;;;;;26.00;20.67;;;1.70;99.90;;;;;;4971882;28;20393;-81
2021/11/27 02:13:26;;;;;;;26.08;19.75;;;1.70;99.90;;;;;;4989841;28;20380;-80
2021/11/27 02:15:52;;;;;;;28.73;20.63;;;1.70;99.90;;;;;;4981026;28;20395;-81
2021/11/27 02:18:18;;;;;;;25.38;19.88;;;1.60;99.90;;;;;;5004710;28;20379;-80
2021/11/27 02:20:59;;;;;;;28.20;20.75;;;1.50;99.90;;;;;;5004260;28;20372;-79
2021/11/27 02:23:27;;;;;;;26.02;20.13;;;1.60;99.90;;;;;;4989593;28;20875;-79
2021/11/27 02:25:53;;;;;;;26.58;20.10;;;1.60;99.90;;;;;;4989730;28;20886;-80
2021/11/27 02:28:19;;;;;;;26.20;20.05;;;1.60;99.90;;;;;;4988491;28;20377;-80
2021/11/27 02:30:45;;;;;;;25.17;19.55;;;1.60;99.90;;;;;;4989674;28;20445;-80
2021/11/27 02:33:11;;;;;;;28.48;20.35;;;1.50;99.90;;;;;;4989392;28;20390;-80
2021/11/27 02:35:36;;;;;;;28.33;21.08;;;1.40;99.90;;;;;;4988275;28;20739;-80
2021/11/27 02:38:03;;;;;;;29.13;21.23;;;1.40;99.90;;;;;;4989284;28;20727;-81
2021/11/27 02:40:29;;;;;;;26.75;20.58;;;1.40;99.90;;;;;;4987950;28;20397;-81
2021/11/27 02:42:54;;;;;;;27.13;21.38;;;1.30;99.90;;;;;;4987806;28;20397;-81
2021/11/27 02:45:20;;;;;;;27.13;21.30;;;1.30;99.90;;;;;;4988164;28;21028;-80
2021/11/27 02:47:46;;;;;;;29.17;21.50;;;1.30;99.90;;;;;;4987816;28;20992;-80
2021/11/27 02:50:13;;;;;;;27.17;20.73;;;1.40;99.90;;;;;;4989103;28;20387;-81
2021/11/27 02:52:40;;;;;;;25.95;20.85;;;1.30;99.90;;;;;;4988092;28;20389;-82
2021/11/27 02:55:06;;;;;;;28.25;21.33;;;1.30;99.90;;;;;;4989489;28;20401;-82
2021/11/27 02:57:32;;;;;;;26.60;21.33;;;1.20;99.90;;;;;;4991348;28;20407;-81
2021/11/27 02:59:59;;;;;;;25.38;20.80;;;1.20;99.90;;;;;;4993444;28;20383;-80
2021/11/27 03:02:25;;;;;;;27.52;20.83;;;1.20;99.90;;;;;;4993236;28;20387;-81
2021/11/27 03:04:51;;;;;;;27.65;21.65;;;1.20;99.90;;;;;;4993344;28;20381;-80
2021/11/27 03:07:17;;;;;;;26.88;21.52;;;1.20;99.90;;;;;;4993233;28;20405;-80
2021/11/27 03:09:43;;;;;;;28.60;21.02;;;1.10;99.90;;;;;;4992683;28;20475;-80
2021/11/27 03:12:10;;;;;;;29.15;22.08;;;1.10;99.90;;;;;;4991331;28;20499;-80
2021/11/27 03:14:36;;;;;;;26.88;21.20;;;1.10;99.90;;;;;;4992746;28;20925;-80
2021/11/27 03:17:02;;;;;;;30.15;21.95;;;1.10;99.90;;;;;;5007986;28;20381;-80
2021/11/27 03:19:34;;;;;;;29.67;21.80;;;1.10;99.90;;;;;;4993035;28;20391;-80
2021/11/27 03:22:00;;;;;;;29.30;21.80;;;1.10;99.90;;;;;;4991697;28;20385;-80
2021/11/27 03:24:26;;;;;;;24.45;20.52;;;1.10;99.90;;;;;;4992930;28;20389;-82
2021/11/27 03:26:52;;;;;;;27.48;22.00;;;1.00;99.90;;;;;;4990991;28;20455;-80
2021/11/27 03:29:17;;;;;;;29.52;22.27;;;1.00;99.90;;;;;;4992646;28;20409;-79
2021/11/27 03:31:43;;;;;;;27.08;21.65;;;1.00;99.90;;;;;;4991274;28;20451;-79
2021/11/27 03:34:09;;;;;;;28.17;21.83;;;1.00;99.90;;;;;;4992738;28;20432;-80
2021/11/27 03:36:35;;;;;;;29.92;22.92;;;0.90;99.90;;;;;;4991417;28;20393;-79
2021/11/27 03:39:04;;;;;;;30.35;22.52;;;0.90;99.90;;;;;;4991311;28;20952;-81
2021/11/27 03:41:30;;;;;;;30.75;23.30;;;0.80;99.90;;;;;;4992349;28;20413;-79
2021/11/27 03:43:56;;;;;;;32.20;23.17;;;0.80;99.90;;;;;;4992272;28;20416;-79
2021/11/27 03:46:22;;;;;;;32.50;23.65;;;0.80;99.90;;;;;;4992173;28;20811;-80
2021/11/27 03:48:47;;;;;;;30.80;22.63;;;0.80;99.90;;;;;;4992085;28;20377;-81
2021/11/27 03:51:20;;;;;;;32.15;23.70;;;0.80;99.90;;;;;;4991086;28;20743;-80
2021/11/27 03:53:47;;;;;;;31.90;24.00;;;0.70;99.90;;;;;;4992181;28;20389;-79
2021/11/27 03:56:18;;;;;;;32.35;24.05;;;0.70;99.90;;;;;;4991065;28;20389;-79
2021/11/27 03:58:44;;;;;;;30.45;23.42;;;0.70;99.90;;;;;;4991890;28;20405;-78
2021/11/27 04:01:13;;;;;;;32.42;23.15;;;0.70;99.90;;;;;;4992200;28;20424;-80
2021/11/27 04:03:41;;;;;;;30.65;22.33;;;0.70;99.90;;;;;;4990624;28;20393;-80
2021/11/27 04:06:08;;;;;;;30.05;22.45;;;0.80;99.90;;;;;;4991655;28;20436;-81
2021/11/27 04:08:34;;;;;;;29.15;22.48;;;0.80;99.90;;;;;;4990400;28;20477;-80
2021/11/27 04:11:00;;;;;;;27.10;21.47;;;0.90;99.90;;;;;;4992001;28;20747;-81
2021/11/27 04:13:26;;;;;;;28.77;21.58;;;1.00;99.90;;;;;;4991782;28;20396;-80
2021/11/27 04:15:52;;;;;;;26.45;20.77;;;1.10;99.90;;;;;;4990462;28;20395;-80
2021/11/27 04:18:18;;;;;;;25.15;20.63;;;1.20;99.90;;;;;;4990445;28;20401;-81
2021/11/27 04:20:44;;;;;;;26.85;21.23;;;1.30;99.90;;;;;;4990645;28;20385;-81
2021/11/27 04:23:11;;;;;;;26.83;20.80;;;1.30;99.90;;;;;;4991905;28;20381;-81
2021/11/27 04:25:37;;;;;;;28.15;20.45;;;1.40;99.90;;;;;;4991812;28;20859;-80
2021/11/27 04:28:04;;;;;;;25.23;20.63;;;1.50;99.90;;;;;;4991550;28;20400;-81
2021/11/27 04:30:32;;;;;;;24.98;21.10;;;1.50;99.90;;;;;;4991725;28;20448;-80
2021/11/27 04:32:58;;;;;;;31.88;26.33;;;1.60;99.90;;;;;;4990085;28;20373;-81
2021/11/27 04:35:25;;;;;;;26.13;20.15;;;1.70;99.90;;;;;;4991651;28;20384;-81
2021/11/27 04:37:52;;;;;;;33.53;25.77;;;1.70;99.90;;;;;;4989909;28;20409;-80
2021/11/27 04:40:18;;;;;;;25.75;20.42;;;1.70;99.90;;;;;;4991444;28;20385;-81
2021/11/27 04:42:45;;;;;;;31.45;25.08;;;1.70;99.90;;;;;;4991326;28;20392;-82
2021/11/27 04:45:11;;;;;;;26.70;21.48;;;1.80;99.90;;;;;;4991533;28;20800;-81
2021/11/27 04:47:37;;;;;;;23.45;18.98;;;1.90;99.90;;;;;;4991338;28;20432;-81
2021/11/27 04:50:06;;;;;;;34.37;26.13;;;1.90;99.90;;;;;;4991515;28;20713;-81
2021/11/27 04:52:32;;;;;;;32.83;25.95;;;2.00;99.90;;;;;;4989555;28;20463;-81
2021/11/27 04:54:57;;;;;;;21.83;17.43;;;2.00;99.90;;;;;;4990953;28;20476;-81
2021/11/27 04:57:23;;;;;;;24.23;19.17;;;2.00;99.90;;;;;;4991159;28;20396;-81
2021/11/27 04:59:49;;;;;;;52.23;41.87;;;2.00;99.90;;;;;;4989442;28;20403;-81
2021/11/27 05:02:15;;;;;;;70.70;54.93;;;2.00;99.90;;;;;;4990930;28;20383;-81
2021/11/27 05:04:41;;;;;;;137.13;104.93;;;2.10;99.90;;;;;;4989644;28;20895;-80
2021/11/27 05:07:07;;;;;;;133.32;101.90;;;2.10;99.90;;;;;;4990699;28;20471;-82
2021/11/27 05:09:33;;;;;;;155.35;115.25;;;2.10;99.90;;;;;;4990484;28;20388;-81
2021/11/27 05:11:59;;;;;;;125.63;90.93;;;2.10;99.90;;;;;;4989516;28;20381;-81
2021/11/27 05:14:25;;;;;;;32.20;24.80;;;2.10;99.90;;;;;;4990498;28;20393;-82
2021/11/27 05:16:51;;;;;;;120.90;91.53;;;2.10;99.90;;;;;;4989070;28;20377;-81
2021/11/27 05:19:17;;;;;;;54.67;42.15;;;2.10;99.90;;;;;;4989539;28;20455;-81
2021/11/27 05:21:43;;;;;;;29.52;21.17;;;2.10;99.90;;;;;;4990401;28;20389;-81
2021/11/27 05:24:09;;;;;;;22.67;17.38;;;2.10;99.90;;;;;;4990547;28;20385;-82
2021/11/27 05:26:35;;;;;;;23.90;19.95;;;2.10;99.90;;;;;;4989145;28;20415;-81
2021/11/27 05:29:01;;;;;;;26.58;20.67;;;2.20;99.90;;;;;;4988938;28;20413;-81
2021/11/27 05:31:27;;;;;;;23.10;19.42;;;2.20;99.90;;;;;;4990934;28;20399;-82
2021/11/27 05:34:20;;;;;;;23.30;17.48;;;2.20;99.90;;;;;;4990387;28;20388;-81
2021/11/27 05:36:45;;;;;;;21.75;17.30;;;2.20;99.90;;;;;;4990139;28;20524;-84
2021/11/27 05:39:11;;;;;;;20.80;17.02;;;2.20;99.90;;;;;;4989158;28;20401;-81
2021/11/27 05:41:38;;;;;;;22.23;17.05;;;2.20;99.90;;;;;;4988869;28;20735;-81
2021/11/27 05:44:04;;;;;;;19.90;15.97;;;2.20;99.90;;;;;;4988725;28;20420;-82
2021/11/27 05:46:30;;;;;;;22.05;16.23;;;2.20;99.90;;;;;;4990096;28;20397;-81
2021/11/27 05:48:55;;;;;;;20.48;16.42;;;2.30;99.90;;;;;;4990190;28;20383;-82
2021/11/27 05:51:21;;;;;;;20.73;16.58;;;2.30;99.90;;;;;;4988657;28;20447;-81
2021/11/27 05:53:47;;;;;;;21.05;16.45;;;2.30;99.90;;;;;;4990138;28;20365;-81
2021/11/27 05:56:13;;;;;;;19.77;15.90;;;2.40;99.90;;;;;;4990229;28;20385;-82
2021/11/27 05:58:39;;;;;;;19.73;16.15;;;2.40;99.90;;;;;;4989971;28;20404;-81
2021/11/27 06:01:06;;;;;;;19.08;15.73;;;2.30;99.90;;;;;;4990120;28;20889;-81
2021/11/27 06:03:33;;;;;;;21.30;16.23;;;2.30;99.90;;;;;;4988797;28;20396;-81
2021/11/27 06:06:00;;;;;;;21.60;15.83;;;2.30;99.90;;;;;;4989391;28;20529;-82
2021/11/27 06:08:26;;;;;;;23.73;16.25;;;2.30;99.90;;;;;;4988841;28;20447;-81
2021/11/27 06:10:52;;;;;;;18.67;15.07;;;2.30;99.90;;;;;;4988513;28;20894;-81
2021/11/27 06:13:17;;;;;;;19.10;15.48;;;2.30;99.90;;;;;;4989868;28;20913;-81
2021/11/27 06:15:43;;;;;;;19.23;15.70;;;2.40;99.90;;;;;;4988261;28;20396;-81
2021/11/27 06:18:09;;;;;;;18.83;15.65;;;2.50;99.90;;;;;;4988427;28;20393;-81
2021/11/27 06:20:34;;;;;;;19.60;15.77;;;2.40;99.90;;;;;;4988305;28;20377;-82
2021/11/27 06:23:00;;;;;;;20.05;15.98;;;2.40;99.90;;;;;;4988126;28;20395;-81
2021/11/27 06:25:27;;;;;;;20.42;15.95;;;2.40;99.90;;;;;;4989631;28;20778;-81
2021/11/27 06:27:52;;;;;;;20.95;14.73;;;2.50;99.90;;;;;;4988140;28;20966;-82
2021/11/27 06:30:18;;;;;;;19.03;15.43;;;2.50;99.90;;;;;;4988312;28;20389;-80
2021/11/27 06:32:45;;;;;;;21.80;16.50;;;2.50;99.90;;;;;;4989638;28;20720;-80
2021/11/27 06:35:11;;;;;;;19.27;15.38;;;2.60;99.90;;;;;;4988146;28;20388;-81
2021/11/27 06:37:37;;;;;;;19.60;15.50;;;2.60;99.90;;;;;;4989488;28;20910;-81
2021/11/27 06:40:04;;;;;;;20.58;15.95;;;2.60;99.90;;;;;;4988949;28;20384;-80
2021/11/27 06:42:29;;;;;;;22.97;16.23;;;2.60;99.90;;;;;;4988236;28;20409;-80
2021/11/27 06:44:55;;;;;;;18.37;15.50;;;2.60;99.90;;;;;;4987810;28;20401;-81
2021/11/27 06:47:23;;;;;;;19.70;15.53;;;2.60;99.90;;;;;;4987900;28;20409;-80
2021/11/27 06:49:51;;;;;;;19.63;15.65;;;2.60;99.90;;;;;;4989437;28;20456;-80
2021/11/27 06:52:18;;;;;;;18.48;15.45;;;2.50;99.90;;;;;;4989720;28;20917;-81
2021/11/27 06:54:44;;;;;;;22.40;16.23;;;2.50;99.90;;;;;;4987453;28;20455;-81
2021/11/27 06:57:10;;;;;;;20.33;16.30;;;2.50;99.90;;;;;;4987996;28;20389;-80
2021/11/27 06:59:37;;;;;;;19.33;15.77;;;2.50;99.90;;;;;;4987721;28;20560;-80
2021/11/27 07:02:04;;;;;;;22.20;16.95;;;2.50;99.90;;;;;;4987384;28;20886;-80
2021/11/27 07:04:30;;;;;;;20.77;16.33;;;2.50;99.90;;;;;;4988047;28;21832;-81
2021/11/27 07:06:56;;;;;;;21.00;16.90;;;2.50;99.90;;;;;;4989222;28;20423;-80
2021/11/27 07:09:22;;;;;;;18.63;16.15;;;2.50;99.90;;;;;;4989454;28;20395;-80
2021/11/27 07:11:48;;;;;;;22.02;18.02;;;2.50;99.90;;;;;;4989386;28;20385;-81
2021/11/27 07:14:14;;;;;;;22.77;17.30;;;2.50;99.90;;;;;;4987385;28;20458;-80
2021/11/27 07:16:40;;;;;;;21.67;16.15;;;2.60;99.90;;;;;;4989270;28;21314;-81
2021/11/27 07:19:06;;;;;;;18.90;15.75;;;2.50;99.90;;;;;;4988061;28;20386;-81
2021/11/27 07:21:32;;;;;;;20.75;16.75;;;2.60;99.90;;;;;;4989365;28;20408;-80
2021/11/27 07:23:57;;;;;;;21.00;16.00;;;2.60;99.90;;;;;;4988117;28;20476;-80
2021/11/27 07:26:23;;;;;;;21.63;16.50;;;2.70;99.90;;;;;;4987762;28;20416;-81
2021/11/27 07:28:49;;;;;;;19.13;15.90;;;2.80;99.90;;;;;;4987310;28;20420;-80
2021/11/27 07:31:16;;;;;;;17.80;15.50;;;2.80;99.90;;;;;;4988926;28;20883;-81
2021/11/27 07:33:42;;;;;;;20.13;15.43;;;2.90;99.90;;;;;;4987674;28;20392;-81
2021/11/27 07:36:09;;;;;;;19.75;16.77;;;2.80;99.90;;;;;;4989036;28;20392;-81
2021/11/27 07:38:36;;;;;;;20.52;16.13;;;2.80;99.90;;;;;;4989019;28;20380;-80
2021/11/27 07:41:04;;;;;;;21.10;16.83;;;2.80;99.90;;;;;;4988810;28;20883;-81
2021/11/27 07:43:30;;;;;;;21.42;16.67;;;2.80;99.90;;;;;;4990713;28;20401;-80
2021/11/27 07:45:56;;;;;;;21.00;16.27;;;2.80;99.90;;;;;;4990893;28;20451;-81
2021/11/27 07:48:24;;;;;;;22.48;16.77;;;2.90;99.90;;;;;;4990931;28;20373;-81
2021/11/27 07:50:50;;;;;;;22.23;16.90;;;2.90;99.90;;;;;;4991068;28;20420;-80
2021/11/27 07:53:16;;;;;;;22.85;17.75;;;3.00;99.90;;;;;;4991023;28;20389;-80
2021/11/27 07:55:43;;;;;;;20.13;15.95;;;3.10;99.90;;;;;;4992308;28;20408;-81
2021/11/27 07:58:09;;;;;;;21.57;16.83;;;3.10;99.90;;;;;;4992919;28;20432;-80
2021/11/27 08:00:35;;;;;;;20.60;16.97;;;3.10;99.90;;;;;;4991977;28;20392;-81
2021/11/27 08:03:00;;;;;;;21.93;17.00;;;3.20;99.90;;;;;;4992475;28;20866;-80
2021/11/27 08:05:26;;;;;;;21.53;16.90;;;3.10;99.90;;;;;;4990636;28;21255;-81
2021/11/27 08:07:52;;;;;;;22.25;17.50;;;3.10;99.90;;;;;;4990627;28;20405;-81
2021/11/27 08:10:18;;;;;;;24.83;17.13;;;3.10;99.90;;;;;;4990735;28;20382;-80
2021/11/27 08:12:44;;;;;;;20.73;17.33;;;3.10;99.90;;;;;;4991820;28;20466;-83
2021/11/27 08:15:10;;;;;;;24.47;18.20;;;3.10;99.90;;;;;;4991754;28;20389;-81
2021/11/27 08:17:37;;;;;;;21.25;17.65;;;3.10;99.90;;;;;;4990560;28;20949;-81
2021/11/27 08:20:07;;;;;;;22.95;18.52;;;3.10;99.90;;;;;;4990543;28;20429;-80
2021/11/27 08:22:33;;;;;;;22.05;18.25;;;3.20;99.90;;;;;;4990603;28;20483;-81
2021/11/27 08:24:59;;;;;;;24.75;18.20;;;3.20;99.90;;;;;;4991910;28;20960;-80
2021/11/27 08:27:27;;;;;;;25.67;19.42;;;3.30;99.90;;;;;;4990410;28;20420;-81
2021/11/27 08:29:54;;;;;;;22.50;19.02;;;3.20;99.90;;;;;;4991319;28;20900;-81
2021/11/27 08:32:20;;;;;;;22.67;18.60;;;3.20;99.90;;;;;;4990170;28;20447;-79
2021/11/27 08:34:46;;;;;;;23.08;18.85;;;3.30;99.90;;;;;;4991752;28;20468;-82
2021/11/27 08:37:12;;;;;;;25.88;19.65;;;3.40;99.90;;;;;;4990271;28;20472;-80
2021/11/27 08:39:38;;;;;;;23.00;18.33;;;3.40;99.90;;;;;;4990028;28;20392;-82
2021/11/27 08:42:04;;;;;;;25.45;19.27;;;3.50;99.90;;;;;;4991704;28;20727;-82
2021/11/27 08:44:30;;;;;;;23.88;18.90;;;3.50;99.90;;;;;;4989690;28;20393;-82
2021/11/27 08:46:56;;;;;;;23.10;19.40;;;3.40;99.90;;;;;;4990069;28;20423;-82
2021/11/27 08:49:21;;;;;;;27.03;20.50;;;3.50;99.90;;;;;;4991334;28;20376;-81
2021/11/27 08:51:47;;;;;;;24.87;20.33;;;3.50;99.90;;;;;;4989781;28;20447;-82
2021/11/27 08:54:13;;;;;;;24.23;19.37;;;3.50;99.90;;;;;;4990142;28;20950;-82
2021/11/27 08:56:40;;;;;;;26.00;20.30;;;3.50;99.90;;;;;;4991375;28;20396;-81
2021/11/27 08:59:05;;;;;;;24.63;19.60;;;3.50;99.90;;;;;;4991327;28;20402;-80
2021/11/27 09:01:31;;;;;;;25.50;20.00;;;3.40;99.90;;;;;;4988360;28;20396;-83
2021/11/27 09:03:57;;;;;;;25.92;21.02;;;3.30;99.90;;;;;;4988883;28;20887;-83
2021/11/27 09:06:25;;;;;;;27.38;21.08;;;3.50;99.90;;;;;;4990013;28;20448;-79
2021/11/27 09:08:51;;;;;;;26.52;20.20;;;3.50;99.90;;;;;;4990111;28;20909;-82
2021/11/27 09:11:18;;;;;;;26.10;20.45;;;3.40;99.90;;;;;;4989586;28;20414;-82
2021/11/27 09:13:46;;;;;;;27.63;20.60;;;3.50;99.90;;;;;;4990818;28;20443;-82
2021/11/27 09:16:11;;;;;;;24.47;19.67;;;3.50;99.90;;;;;;4989472;28;20515;-80
2021/11/27 09:18:37;;;;;;;25.07;20.27;;;3.60;99.90;;;;;;4989398;28;20381;-80
2021/11/27 09:21:03;;;;;;;25.53;20.27;;;3.70;99.90;;;;;;4990976;28;20389;-82
2021/11/27 09:23:29;;;;;;;27.10;20.85;;;3.70;99.90;;;;;;4990786;28;20380;-82
2021/11/27 09:25:57;;;;;;;24.88;20.27;;;3.80;99.90;;;;;;4989408;28;20786;-82
2021/11/27 09:28:23;;;;;;;28.23;21.55;;;3.70;99.90;;;;;;4989379;28;20381;-82
2021/11/27 09:30:50;;;;;;;25.20;20.60;;;3.70;99.90;;;;;;4985412;28;20915;-82
2021/11/27 09:33:16;;;;;;;26.23;21.30;;;3.80;99.90;;;;;;5006039;28;20391;-83
2021/11/27 09:35:53;;;;;;;26.00;20.48;;;3.90;99.90;;;;;;5010073;28;20387;-82
2021/11/27 09:38:19;;;;;;;26.35;20.92;;;3.90;99.90;;;;;;4997158;28;20393;-82
2021/11/27 09:40:50;;;;;;;25.10;20.57;;;3.90;99.90;;;;;;4989856;28;20435;-82
2021/11/27 09:43:15;;;;;;;26.90;21.42;;;3.90;99.90;;;;;;4989090;28;20389;-82
2021/11/27 09:45:41;;;;;;;25.60;20.67;;;3.90;99.90;;;;;;4987729;28;20915;-83
2021/11/27 09:48:09;;;;;;;26.40;21.47;;;3.90;99.90;;;;;;4990200;28;20400;-82
2021/11/27 09:50:35;;;;;;;29.23;21.60;;;4.00;99.90;;;;;;4988387;28;20431;-81
2021/11/27 09:53:01;;;;;;;38.33;31.25;;;4.00;99.90;;;;;;4989279;28;21107;-82
2021/11/27 09:55:27;;;;;;;27.10;21.75;;;4.00;99.90;;;;;;4989462;28;20444;-82
2021/11/27 09:57:53;;;;;;;28.63;22.55;;;4.10;99.90;;;;;;4987681;28;20392;-82
2021/11/27 10:00:21;;;;;;;29.33;22.77;;;4.10;99.90;;;;;;4979285;28;20753;-83
2021/11/27 10:02:53;;;;;;;28.85;22.23;;;4.00;99.90;;;;;;4976077;28;20464;-82
2021/11/27 10:05:19;;;;;;;27.95;22.23;;;4.10;99.90;;;;;;5002207;28;20387;-82
2021/11/27 10:07:47;;;;;;;28.38;22.50;;;4.10;99.90;;;;;;5009381;28;20407;-82
2021/11/27 10:10:13;;;;;;;30.52;23.05;;;4.20;99.90;;;;;;5009084;28;20460;-82
2021/11/27 10:12:40;;;;;;;28.40;22.77;;;4.30;99.90;;;;;;5009047;28;20375;-82
2021/11/27 10:15:07;;;;;;;28.58;22.85;;;4.20;99.90;;;;;;5009275;28;20375;-83
2021/11/27 10:17:33;;;;;;;26.60;20.98;;;4.20;99.90;;;;;;5000655;28;20530;-82
2021/11/27 10:20:02;;;;;;;26.25;21.60;;;4.40;99.90;;;;;;5008998;28;21020;-82
2021/11/27 10:22:45;;;;;;;26.77;21.75;;;4.60;99.90;;;;;;5007523;28;20387;-83
2021/11/27 10:25:39;;;;;;;28.63;21.90;;;4.70;99.90;;;;;;5007823;28;20410;-83
2021/11/27 10:28:17;;;;;;;29.23;23.15;;;4.90;99.90;;;;;;4988103;28;20409;-82
2021/11/27 10:30:52;;;;;;;29.60;23.55;;;4.90;99.90;;;;;;4987552;28;20410;-82
2021/11/27 10:33:19;;;;;;;28.95;22.10;;;4.80;99.90;;;;;;4988823;28;20406;-82
2021/11/27 10:36:09;;;;;;;29.50;23.35;;;4.80;99.90;;;;;;4998748;28;20987;-82
2021/11/27 10:38:40;;;;;;;26.67;22.58;;;4.80;99.90;;;;;;4983498;28;20391;-81
2021/11/27 10:41:07;;;;;;;31.73;23.52;;;4.70;99.90;;;;;;4987628;28;20433;-83
2021/11/27 10:43:34;;;;;;;29.60;21.53;;;4.80;99.90;;;;;;4989956;28;20411;-82
2021/11/27 10:46:00;;;;;;;28.95;22.98;;;4.90;99.90;;;;;;4993186;28;20435;-82
2021/11/27 10:48:26;;;;;;;29.60;23.27;;;4.90;99.90;;;;;;5009713;28;20386;-81
2021/11/27 10:50:55;;;;;;;29.30;23.60;;;4.80;99.90;;;;;;5007336;28;20407;-83
2021/11/27 10:53:25;;;;;;;27.85;22.98;;;4.80;99.90;;;;;;5007569;28;20470;-82
2021/11/27 10:55:52;;;;;;;28.65;22.95;;;4.70;99.90;;;;;;5008974;28;20908;-82
2021/11/27 10:58:18;;;;;;;27.98;22.52;;;4.70;99.90;;;;;;5008545;28;20379;-83
2021/11/27 11:00:49;;;;;;;29.10;22.73;;;4.70;99.90;;;;;;5008348;28;20892;-82
2021/11/27 11:03:31;;;;;;;29.50;23.15;;;4.70;99.90;;;;;;4991842;28;20387;-82
2021/11/27 11:06:00;;;;;;;27.77;22.20;;;4.70;99.90;;;;;;5009182;28;20764;-81
2021/11/27 11:08:37;;;;;;;28.88;23.35;;;4.80;99.90;;;;;;5009243;28;20391;-82
2021/11/27 11:11:24;;;;;;;27.73;22.97;;;4.70;99.90;;;;;;5008536;28;20479;-82
2021/11/27 11:13:57;;;;;;;30.63;23.30;;;4.80;99.90;;;;;;5008970;28;20438;-81
2021/11/27 11:16:26;;;;;;;31.20;23.45;;;4.70;99.90;;;;;;5008343;28;20445;-82
2021/11/27 11:19:12;;;;;;;29.27;22.65;;;4.80;99.90;;;;;;5012540;28;20385;-82
2021/11/27 11:21:38;;;;;;;29.35;24.40;;;4.90;99.90;;;;;;5011547;28;20481;-82
2021/11/27 11:24:26;;;;;;;30.10;22.92;;;5.00;99.90;;;;;;5027550;28;20423;-81
2021/11/27 11:26:58;;;;;;;28.20;22.75;;;5.00;99.90;;;;;;5011298;28;20450;-82
2021/11/27 11:29:44;;;;;;;28.95;22.88;;;5.10;99.90;;;;;;5010839;28;20904;-82
2021/11/27 11:32:28;;;;;;;26.88;22.77;;;5.20;99.90;;;;;;5010141;28;20391;-82
2021/11/27 11:34:56;;;;;;;30.50;23.38;;;5.20;99.90;;;;;;5011929;28;20383;-82
2021/11/27 11:37:23;;;;;;;29.15;23.35;;;5.30;99.90;;;;;;5012292;28;20372;-81
2021/11/27 11:39:50;;;;;;;30.25;23.95;;;5.40;99.90;;;;;;5012257;28;20388;-82
2021/11/27 11:42:16;;;;;;;28.70;22.95;;;5.40;99.90;;;;;;5011934;28;20874;-83
2021/11/27 11:44:42;;;;;;;29.42;22.83;;;5.50;99.90;;;;;;5010675;28;20387;-82
2021/11/27 11:47:12;;;;;;;24.30;21.38;;;5.50;99.90;;;;;;5010418;28;20418;-81
2021/11/27 11:49:39;;;;;;;27.60;22.25;;;5.60;99.90;;;;;;5010531;28;20391;-82
2021/11/27 11:52:31;;;;;;;27.37;22.17;;;5.60;99.90;;;;;;5011574;28;20397;-81
2021/11/27 11:55:05;;;;;;;27.13;22.42;;;5.50;99.90;;;;;;5010639;28;20437;-82
2021/11/27 11:57:45;;;;;;;28.10;22.88;;;5.60;99.90;;;;;;5010252;28;20394;-82
2021/11/27 12:00:26;;;;;;;29.30;23.15;;;5.60;99.90;;;;;;5007206;28;20781;-82
2021/11/27 12:02:52;;;;;;;27.83;22.92;;;5.60;99.90;;;;;;5011089;28;20395;-82
2021/11/27 12:05:22;;;;;;;25.73;21.98;;;5.40;99.90;;;;;;5012010;28;20795;-82
2021/11/27 12:07:50;;;;;;;27.38;21.90;;;5.40;99.90;;;;;;5009994;28;20417;-82
2021/11/27 12:10:25;;;;;;;29.05;23.63;;;5.50;99.90;;;;;;5010111;28;20391;-82
2021/11/27 12:13:09;;;;;;;26.57;22.23;;;5.50;99.90;;;;;;5010126;28;20383;-82
2021/11/27 12:15:36;;;;;;;27.65;22.05;;;5.50;99.90;;;;;;5010010;28;20394;-83
2021/11/27 12:18:04;;;;;;;26.58;21.73;;;5.50;99.90;;;;;;4991374;28;20430;-81
2021/11/27 12:20:46;;;;;;;26.13;22.42;;;5.60;99.90;;;;;;5010028;28;20832;-81
2021/11/27 12:26:09;;;;;;;27.92;22.27;;;5.70;99.90;;;;;;5011206;28;20442;-82
2021/11/27 12:28:37;;;;;;;28.05;23.35;;;5.80;99.90;;;;;;5011169;28;20957;-82
2021/11/27 12:31:12;;;;;;;27.50;22.53;;;5.80;99.90;;;;;;5009558;28;20391;-82
2021/11/27 12:33:59;;;;;;;26.13;22.13;;;5.90;99.90;;;;;;5009468;28;20964;-82
2021/11/27 12:36:25;;;;;;;27.50;22.60;;;5.90;99.90;;;;;;4991284;28;20392;-81
2021/11/27 12:39:20;;;;;;;30.13;24.42;;;5.90;99.90;;;;;;4974124;28;20385;-82
2021/11/27 12:41:47;;;;;;;26.98;22.27;;;5.80;99.90;;;;;;4973763;28;20411;-82